Friars Point, MS (38631)

5:27 AM CST on February 14, 2016 (GMT -0600)
Clarksdale | | Change Station
CLOSE
Current Station
Personal Weather Station
Location: Clarksdale, MS
Elevation: 164 ft
Nearby Weather Stations

Elev 164 ft 34.10 °N, 90.61 °W | Updated 1 second ago

Overcast
Overcast
37.0 °F
Feels Like 33 °F
N
5.0
Wind Variable Wind from East
Gusts 11.0 mph

Today
High -- | Low -- °F
--% Chance of Precip.
Yesterday
High -- | Low -- °F
Precip. -- in
Pressure 30.23 in
Visibility 10.0 miles
Clouds Overcast 5000 ft
Windchill 33 °F
Dew Point 19 °F
Humidity 47%
Rainfall 0.00 in
Snow Depth Not available.
6:49 AM 5:44 PM
Waxing Crescent, 40% visible
METAR KUTA 141115Z AUTO 12009KT 10SM OVC050 00/M10 A3023 RMK AO2 TSNO
Pressure 30.23 in
Visibility 10.0 miles
Clouds Overcast 5000 ft
Windchill 33 °F
Dew Point 19 °F
Humidity 47%
Rainfall 0.00 in
Snow Depth Not available.
6:49 AM 5:44 PM
Waxing Crescent, 40% visible
METAR KUTA 141115Z AUTO 12009KT 10SM OVC050 00/M10 A3023 RMK AO2 TSNO

10-Day Weather Forecast

Almanac

Astronomy

Feb. 14, 2016 Rise Set
Actual Time
Civil Twilight
Nautical Twilight
Astronomical Twilight
Moon
Length of Visible Light
Length of Day
Tomorrow will be .
, % of the Moon is Illuminated

Today's Extremes

State Highs State Lows

Community

WunderPhotos

Upload Photos

1,892,766 photos uploaded!

WunderBlog® & News

Nearby

Air Quality

  Air Quality AQ Index Pollutant
Not available.

Snow Depth

Station Depth Elevation

Earthquake Activity

City Distance Mag. Time & Date
Minimum magnitude displayed is 2.5.

Coastal Water Temperatures

Place Temperature

Stations

Nearby Weather Stations

Station Location Temp. Windchill Dew Point Humidity Wind Precip. Elev Updated Type
                   

Watches & Warnings

There are currently no watches in effect.